Data for 09/26/2013

Time Sea-Level Adjusted Pressure Absolute Pressure Temperature Relative Humidity Dew Point Precipitation   
(mb) (inHg) (mb) (inHg) (C) (F) (%) (C) (F) (mm) (in)
00:05 1012 29.88 841 24.83 2.9 37.3 91 1.6 34.9 0 0
00:10 1012 29.88 841 24.83 2.9 37.2 93 1.8 35.2 0 0
00:15 1012 29.88 841 24.83 2.8 37 92 1.6 34.8 0 0
00:20 1012 29.88 841 24.83 2.7 36.9 92 1.6 34.9 0 0
00:25 1012 29.88 841 24.83 2.6 36.8 93 1.6 34.9 0 0
00:30 1012 29.88 841 24.83 2.5 36.6 93 1.5 34.7 0 0
00:35 1012 29.88 841 24.83 2.4 36.4 93 1.5 34.7 0 0
00:40 1012 29.88 841 24.83 2.3 36.2 94 1.4 34.6 0 0
00:45 1012 29.88 841 24.83 2.3 36.1 94 1.4 34.6 0 0
00:50 1012 29.88 841 24.83 2.2 36 94 1.4 34.5 0 0
00:55 1012 29.88 841 24.83 2.3 36.1 94 1.5 34.6 0 0
01:00 1012 29.88 841 24.83 2.3 36.2 94 1.5 34.7 0 0
01:05 1012 29.88 841 24.83 2.4 36.2 93 1.3 34.4 0 0
01:10 1012 29.88 841 24.83 2.4 36.3 93 1.4 34.5 0 0
01:15 1012 29.88 841 24.83 2.3 36.1 93 1.3 34.3 0 0
01:20 1012 29.88 841 24.83 2.2 35.9 94 1.3 34.3 0 0
01:25 1012 29.88 841 24.83 2.1 35.8 94 1.2 34.2 0 0
01:30 1012 29.88 841 24.83 2.1 35.8 94 1.2 34.2 0 0
01:35 1012 29.88 841 24.83 2.2 35.9 94 1.2 34.2 0 0
01:40 1012 29.88 841 24.83 2.2 35.9 94 1.2 34.2 0 0
01:45 1012 29.88 841 24.83 2.2 35.9 93 1.2 34.1 0 0
01:50 1012 29.88 841 24.83 2.2 35.9 94 1.3 34.3 0 0
01:55 1012 29.88 841 24.83 2.2 36 94 1.4 34.4 0 0
02:00 1012 29.88 841 24.83 2.2 36 95 1.4 34.6 0 0
02:05 1012 29.88 842 24.86 2.2 36 95 1.5 34.6 0 0
02:10 1012 29.88 842 24.86 2.2 36 94 1.4 34.5 0 0
02:15 1012 29.88 841 24.83 2.2 36 94 1.3 34.4 0 0
02:20 1012 29.88 842 24.86 2.2 35.9 93 1.2 34.2 0 0
02:25 1012 29.88 842 24.86 2.2 36 94 1.3 34.3 0 0
02:30 1012 29.88 842 24.86 2.2 35.9 94 1.3 34.4 0 0
02:35 1012 29.88 842 24.86 2.2 35.9 94 1.4 34.4 0 0
02:40 1013 29.91 842 24.86 2.2 36 94 1.4 34.5 0 0
02:45 1013 29.91 842 24.86 2.3 36.1 94 1.4 34.6 0 0
02:50 1013 29.91 842 24.86 2.3 36.2 94 1.4 34.6 0 0
02:55 1013 29.91 842 24.86 2.4 36.2 94 1.5 34.7 0 0
03:00 1013 29.91 842 24.86 2.4 36.2 94 1.5 34.7 0 0
03:05 1013 29.91 842 24.86 2.3 36.2 94 1.5 34.7 0 0
03:10 1013 29.91 842 24.86 2.4 36.3 94 1.6 34.8 0 0
03:15 1013 29.91 842 24.86 2.4 36.3 94 1.6 34.8 0 0
03:20 1013 29.91 842 24.86 2.4 36.3 95 1.6 34.9 0 0
03:25 1013 29.91 842 24.86 2.4 36.3 95 1.6 34.9 0 0
03:30 1013 29.91 842 24.86 2.3 36.2 95 1.5 34.8 0 0
03:35 1013 29.91 842 24.86 2.3 36.2 95 1.5 34.8 0 0
03:40 1013 29.91 842 24.86 2.3 36.1 94 1.5 34.6 0 0
03:45 1013 29.91 842 24.86 2.3 36.1 94 1.5 34.6 0 0
03:50 1013 29.91 842 24.86 2.3 36.1 94 1.4 34.6 0 0
03:55 1013 29.91 842 24.86 2.3 36.1 94 1.4 34.5 0 0
04:00 1013 29.91 842 24.86 2.2 35.9 94 1.4 34.5 0 0
04:05 1013 29.91 842 24.86 2.2 36 95 1.5 34.6 0 0
04:10 1013 29.91 842 24.86 2.2 36 95 1.5 34.7 0 0
04:15 1013 29.91 842 24.86 2.2 35.9 94 1.4 34.5 0 0
04:20 1013 29.91 842 24.86 2.2 35.9 94 1.4 34.4 0 0
04:25 1013 29.91 842 24.86 2.1 35.8 94 1.3 34.3 0 0
04:30 1013 29.91 842 24.86 2.2 35.9 94 1.3 34.3 0 0
04:35 1013 29.91 842 24.86 2.2 35.9 94 1.3 34.4 0 0
04:40 1013 29.91 842 24.86 2.2 35.9 94 1.3 34.4 0 0
04:45 1013 29.91 842 24.86 2.2 35.9 94 1.4 34.4 0 0
04:50 1013 29.91 842 24.86 2.2 35.9 94 1.4 34.4 0 0
04:55 1013 29.91 842 24.86 2.2 36 94 1.4 34.5 0 0
05:00 1013 29.91 843 24.89 2.2 36 94 1.4 34.5 0 0
05:05 1013 29.91 843 24.89 2.2 36 94 1.4 34.5 0 0
05:10 1013 29.91 843 24.89 2.3 36.1 94 1.5 34.6 0 0
05:15 1013 29.91 843 24.89 2.3 36.1 94 1.5 34.7 0 0
05:20 1014 29.94 843 24.89 2.3 36.1 95 1.5 34.8 0 0
05:25 1014 29.94 843 24.89 2.4 36.2 95 1.6 34.8 0 0
05:30 1014 29.94 843 24.89 2.3 36.2 95 1.5 34.8 0 0
05:35 1014 29.94 843 24.89 2.3 36.2 95 1.5 34.8 0 0
05:40 1014 29.94 843 24.89 2.4 36.3 95 1.6 34.9 0 0
05:45 1014 29.94 843 24.89 2.4 36.3 95 1.6 34.9 0 0
05:50 1014 29.94 843 24.89 2.4 36.4 95 1.8 35.2 0 0
05:55 1014 29.94 843 24.89 2.4 36.4 95 1.7 35.1 0 0
06:00 1014 29.94 843 24.89 2.4 36.3 96 1.8 35.2 0 0
06:05 1014 29.94 843 24.89 2.4 36.3 96 1.8 35.3 0 0
06:10 1014 29.94 843 24.89 2.4 36.4 96 1.9 35.4 0 0
06:15 1014 29.94 843 24.89 2.4 36.4 97 1.9 35.5 0 0
06:20 1014 29.94 843 24.89 2.4 36.4 97 2 35.5 0 0
06:25 1014 29.94 843 24.89 2.4 36.3 97 1.9 35.5 0 0
06:30 1014 29.94 843 24.89 2.3 36.1 97 1.9 35.3 0 0
06:35 1014 29.94 843 24.89 2.2 36 97 1.8 35.2 0 0
06:40 1014 29.94 843 24.89 2.2 35.9 97 1.8 35.2 0 0
06:45 1014 29.94 843 24.89 2.1 35.8 97 1.8 35.2 0 0
06:50 1014 29.94 843 24.89 2.1 35.8 97 1.7 35.1 0 0
06:55 1014 29.94 843 24.89 2.2 35.9 97 1.8 35.2 0 0
07:00 1014 29.94 843 24.89 2.1 35.9 97 1.8 35.2 0 0
07:05 1014 29.94 843 24.89 2.2 35.9 98 1.8 35.2 0 0
07:10 1014 29.94 844 24.92 2.2 36 98 1.8 35.3 0 0
07:15 1014 29.94 844 24.92 2.2 36 97 1.8 35.3 0 0
07:20 1014 29.94 844 24.92 2.2 35.9 97 1.8 35.2 0 0
07:25 1014 29.94 844 24.92 2.2 36 97 1.8 35.2 0 0
07:30 1015 29.97 844 24.92 2.2 36 97 1.8 35.2 0 0
07:35 1015 29.97 844 24.92 2.1 35.8 97 1.7 35 0 0
07:40 1015 29.97 844 24.92 1.8 35.3 98 1.5 34.7 0 0
07:45 1015 29.97 844 24.92 1.7 35.1 98 1.4 34.5 0 0
07:50 1015 29.97 844 24.92 1.6 34.8 98 1.3 34.3 0 0
07:55 1015 29.97 844 24.92 1.5 34.7 98 1.2 34.1 0 0
08:00 1015 29.97 844 24.92 1.4 34.5 98 1.1 33.9 0 0
08:05 1015 29.97 844 24.92 1.4 34.5 98 1.1 33.9 0 0
08:10 1015 29.97 844 24.92 1.5 34.6 98 1.2 34.2 0 0
08:15 1015 29.97 844 24.92 1.5 34.7 98 1.2 34.2 0 0
08:20 1015 29.97 844 24.92 1.5 34.6 99 1.3 34.3 0 0
08:25 1015 29.97 844 24.92 1.5 34.8 99 1.3 34.4 0 0
08:30 1015 29.97 844 24.92 1.5 34.7 99 1.3 34.4 0 0
08:35 1015 29.97 844 24.92 1.5 34.7 99 1.3 34.3 0 0
08:40 1015 29.97 844 24.92 1.4 34.5 99 1.2 34.2 0 0
08:45 1015 29.97 845 24.95 1.5 34.6 99 1.3 34.3 0 0
08:50 1015 29.97 845 24.95 1.5 34.7 99 1.3 34.4 0 0
08:55 1015 29.97 845 24.95 1.5 34.6 99 1.3 34.3 0 0
09:00 1016 30 845 24.95 1.5 34.7 99 1.3 34.4 0 0
09:05 1016 30 845 24.95 1.6 34.9 99 1.4 34.6 0 0
09:10 1016 30 845 24.95 1.6 34.8 99 1.4 34.5 .2 0.008
09:15 1016 30 845 24.95 1.6 34.8 99 1.4 34.5 0 0
09:20 1016 30 845 24.95 1.5 34.7 99 1.3 34.4 0 0
09:25 1016 30 845 24.95 1.5 34.8 99 1.4 34.5 0 0
09:30 1016 30 845 24.95 1.6 34.9 98 1.4 34.5 .2 0.008
09:35 1016 30 845 24.95 1.6 34.9 98 1.4 34.5 0 0
09:40 1016 30 845 24.95 1.6 34.8 98 1.3 34.4 .2 0.008
09:45 1016 30 845 24.95 1.5 34.8 98 1.3 34.3 .2 0.008
09:50 1016 30 845 24.95 1.5 34.6 98 1.1 34.1 .2 0.008
09:55 1016 30 845 24.95 1.5 34.6 98 1.2 34.1 0 0
10:00 1016 30 845 24.95 1.5 34.7 98 1.2 34.2 .2 0.008
10:05 1016 30 845 24.95 1.4 34.4 98 1 33.9 0 0
10:10 1016 30 845 24.95 1.2 34.1 98 0.9 33.6 0 0
10:15 1016 30 845 24.95 0.9 33.6 98 0.5 33 .2 0.008
10:20 1016 30 846 24.98 0.3 32.6 98 0.1 32.1 0 0
10:25 1016 30 846 24.98 0.1 32.1 99 -0.1 31.8 .2 0.008
10:30 1016 30 846 24.98 -0.1 31.9 99 -0.2 31.6 0 0
10:35 1016 30 846 24.98 -0.2 31.7 99 -0.3 31.4 0 0
10:40 1016 30 846 24.98 -0.2 31.6 99 -0.3 31.4 0 0
10:45 1016 30 846 24.98 -0.2 31.6 99 -0.3 31.4 0 0
10:50 1016 30 846 24.98 -0.2 31.7 99 -0.3 31.5 0 0
10:55 1016 30 846 24.98 -0.2 31.7 99 -0.3 31.5 0 0
11:00 1016 30 846 24.98 -0.1 31.8 99 -0.2 31.6 .2 0.008
11:05 1017 30.03 846 24.98 -0 31.9 99 -0.1 31.8 .4 0.016
11:10 1017 30.03 846 24.98 0 32 99 -0.1 31.8 .2 0.008
11:15 1017 30.03 846 24.98 0 32.1 99 -0.1 31.9 0 0
11:20 1017 30.03 846 24.98 0.1 32.2 99 0.1 32.1 .2 0.008
11:25 1017 30.03 846 24.98 0.3 32.6 99 0.2 32.4 .2 0.008
11:30 1017 30.03 846 24.98 0.5 32.8 99 0.4 32.7 0 0
11:35 1017 30.03 846 24.98 0.6 33.1 99 0.5 32.9 .2 0.008
11:40 1017 30.03 846 24.98 0.8 33.4 99 0.7 33.3 0 0
11:45 1017 30.03 846 24.98 1 33.8 99 0.9 33.7 0 0
11:50 1017 30.03 846 24.98 1.2 34.1 99 1.1 33.9 0 0
11:55 1017 30.03 846 24.98 1.4 34.6 99 1.3 34.3 0 0
12:00 1017 30.03 846 24.98 1.7 35 98 1.4 34.5 0 0
12:05 1017 30.03 846 24.98 1.8 35.2 97 1.4 34.5 0 0
12:10 1017 30.03 846 24.98 1.8 35.3 97 1.4 34.5 0 0
12:15 1017 30.03 846 24.98 2 35.6 95 1.3 34.3 0 0
12:20 1017 30.03 846 24.98 2.3 36.1 96 1.6 34.9 0 0
12:25 1017 30.03 846 24.98 2.4 36.3 94 1.4 34.6 0 0
12:30 1017 30.03 846 24.98 2.4 36.4 94 1.6 34.9 0 0
12:35 1017 30.03 846 24.98 2.5 36.5 94 1.7 35 0 0
12:40 1017 30.03 846 24.98 2.6 36.7 91 1.3 34.4 0 0
12:45 1017 30.03 846 24.98 2.7 36.9 89 1.1 34 0 0
12:50 1017 30.03 846 24.98 2.8 37 92 1.6 35 0 0
12:55 1017 30.03 846 24.98 2.9 37.2 87 1 33.7 0 0
13:00 1017 30.03 846 24.98 2.9 37.2 88 1.2 34.1 0 0
13:05 1017 30.03 846 24.98 2.9 37.2 89 1.2 34.1 0 0
13:10 1017 30.03 846 24.98 2.9 37.3 90 1.4 34.6 0 0
13:15 1017 30.03 846 24.98 3.1 37.6 88 1.3 34.3 0 0
13:20 1017 30.03 846 24.98 3.1 37.6 88 1.2 34.2 0 0
13:25 1017 30.03 846 24.98 3.2 37.8 88 1.4 34.5 0 0
13:30 1017 30.03 846 24.98 3.3 37.9 88 1.5 34.7 0 0
13:35 1017 30.03 846 24.98 3.4 38 88 1.6 34.9 0 0
13:40 1017 30.03 846 24.98 3.4 38 87 1.4 34.5 0 0
13:45 1017 30.03 846 24.98 3.4 38.2 85 1.2 34.1 0 0
13:50 1017 30.03 846 24.98 3.5 38.4 85 1.2 34.2 0 0
13:55 1017 30.03 846 24.98 3.6 38.4 87 1.7 35 0 0
14:00 1017 30.03 846 24.98 3.7 38.7 86 1.6 34.8 0 0
14:05 1017 30.03 846 24.98 3.7 38.6 84 1.2 34.2 0 0
14:10 1017 30.03 846 24.98 3.6 38.6 85 1.3 34.4 0 0
14:15 1017 30.03 846 24.98 3.7 38.6 83 1 33.8 0 0
14:20 1017 30.03 846 24.98 3.7 38.7 81 0.8 33.5 0 0
14:25 1017 30.03 846 24.98 3.7 38.7 82 0.9 33.6 0 0
14:30 1017 30.03 846 24.98 3.8 38.8 81 0.8 33.4 0 0
14:35 1017 30.03 846 24.98 3.8 38.8 82 0.9 33.6 0 0
14:40 1017 30.03 846 24.98 3.9 38.9 79 0.6 33 0 0
14:45 1017 30.03 846 24.98 3.9 39 81 0.9 33.6 0 0
14:50 1017 30.03 846 24.98 4.1 39.3 80 1 33.8 0 0
14:55 1017 30.03 846 24.98 4 39.3 79 0.8 33.4 0 0
15:00 1017 30.03 846 24.98 4 39.3 81 1.1 33.9 0 0
15:05 1017 30.03 846 24.98 4.1 39.4 83 1.4 34.6 0 0
15:10 1017 30.03 846 24.98 4.1 39.4 79 0.8 33.5 0 0
15:15 1017 30.03 846 24.98 4 39.3 80 0.9 33.7 0 0
15:20 1017 30.03 847 25.01 4.1 39.4 81 1.2 34.2 0 0
15:25 1017 30.03 847 25.01 4.1 39.5 79 0.8 33.4 0 0
15:30 1017 30.03 847 25.01 4.1 39.3 80 0.9 33.6 0 0
15:35 1017 30.03 847 25.01 4.2 39.5 82 1.4 34.5 0 0
15:40 1017 30.03 847 25.01 4.3 39.7 81 1.3 34.4 0 0
15:45 1017 30.03 847 25.01 4.3 39.7 81 1.3 34.3 0 0
15:50 1017 30.03 847 25.01 4.2 39.5 78 0.7 33.3 0 0
15:55 1017 30.03 847 25.01 4.2 39.5 79 0.9 33.7 0 0
16:00 1017 30.03 847 25.01 4.2 39.6 77 0.6 33.2 0 0
16:05 1017 30.03 847 25.01 4.3 39.8 77 0.6 33.1 0 0
16:10 1017 30.03 847 25.01 4.4 39.9 79 1 33.8 0 0
16:15 1017 30.03 847 25.01 4.4 39.9 77 0.8 33.5 0 0
16:20 1017 30.03 847 25.01 4.4 39.9 76 0.6 33.1 0 0
16:25 1017 30.03 847 25.01 4.5 40 74 0.3 32.6 0 0
16:30 1017 30.03 847 25.01 4.5 40.1 74 0.2 32.4 0 0
16:35 1017 30.03 847 25.01 4.5 40.1 76 0.7 33.3 0 0
16:40 1017 30.03 847 25.01 4.6 40.2 76 0.6 33.1 0 0
16:45 1017 30.03 847 25.01 4.6 40.3 73 0.1 32.2 0 0
16:50 1017 30.03 847 25.01 4.6 40.2 76 0.7 33.3 0 0
16:55 1017 30.03 847 25.01 4.6 40.3 73 0.2 32.3 0 0
17:00 1017 30.03 847 25.01 4.7 40.4 75 0.5 32.9 0 0
17:05 1018 30.06 847 25.01 4.8 40.6 75 0.8 33.4 0 0
17:10 1018 30.06 847 25.01 4.7 40.5 76 0.9 33.6 0 0
17:15 1018 30.06 847 25.01 4.6 40.2 76 0.8 33.4 0 0
17:20 1018 30.06 847 25.01 4.6 40.2 77 0.9 33.6 0 0
17:25 1018 30.06 847 25.01 4.6 40.3 76 0.8 33.4 0 0
17:30 1018 30.06 847 25.01 4.6 40.4 74 0.4 32.7 0 0
17:35 1018 30.06 847 25.01 4.7 40.5 75 0.6 33.1 0 0
17:40 1018 30.06 847 25.01 4.8 40.6 72 0.2 32.3 0 0
17:45 1018 30.06 847 25.01 4.7 40.5 76 0.9 33.7 0 0
17:50 1018 30.06 847 25.01 4.7 40.5 74 0.4 32.8 0 0
17:55 1018 30.06 847 25.01 4.7 40.5 76 0.9 33.7 0 0
18:00 1018 30.06 847 25.01 4.7 40.5 77 1 33.8 0 0
18:05 1018 30.06 847 25.01 4.8 40.6 76 0.9 33.5 0 0
18:10 1018 30.06 847 25.01 4.8 40.6 74 0.5 32.9 0 0
18:15 1018 30.06 847 25.01 4.7 40.5 73 0.4 32.7 0 0
18:20 1018 30.06 847 25.01 4.7 40.5 73 0.3 32.6 0 0
18:25 1018 30.06 847 25.01 4.7 40.5 75 0.7 33.3 0 0
18:30 1018 30.06 847 25.01 4.7 40.5 78 1.3 34.3 0 0
18:35 1018 30.06 847 25.01 4.6 40.2 79 1.3 34.3 0 0
18:40 1018 30.06 847 25.01 4.5 40.1 80 1.3 34.3 0 0
18:45 1018 30.06 847 25.01 4.4 39.9 82 1.6 34.9 0 0
18:50 1018 30.06 847 25.01 4.3 39.7 82 1.4 34.5 0 0
18:55 1018 30.06 847 25.01 3.9 39.1 82 1.2 34.2 0 0
19:00 1018 30.06 847 25.01 3.6 38.5 83 1.1 33.9 0 0
19:05 1018 30.06 847 25.01 3.5 38.3 83 0.8 33.5 0 0
19:10 1018 30.06 847 25.01 3.4 38.1 84 1 33.7 0 0
19:15 1018 30.06 847 25.01 3.3 38 84 0.8 33.5 0 0
19:20 1018 30.06 847 25.01 3.3 37.9 82 0.6 33 0 0
19:25 1018 30.06 847 25.01 3.2 37.8 84 0.7 33.3 0 0
19:30 1018 30.06 847 25.01 3.2 37.8 83 0.6 33.1 0 0
19:35 1018 30.06 847 25.01 3.1 37.6 82 0.4 32.7 0 0
19:40 1018 30.06 847 25.01 3 37.5 83 0.5 32.8 0 0
19:45 1018 30.06 847 25.01 3 37.3 82 0.2 32.4 0 0
19:50 1018 30.06 847 25.01 3.1 37.5 80 -0.1 31.9 0 0
19:55 1018 30.06 847 25.01 3 37.5 82 0.2 32.3 0 0
20:00 1018 30.06 847 25.01 3 37.4 81 -0 32 0 0
20:05 1018 30.06 847 25.01 2.9 37.2 82 0.1 32.2 0 0
20:10 1018 30.06 848 25.04 2.7 36.9 84 0.3 32.5 0 0
20:15 1018 30.06 848 25.04 2.7 36.8 84 0.2 32.4 0 0
20:20 1018 30.06 848 25.04 2.8 37 82 0 32 0 0
20:25 1018 30.06 848 25.04 2.9 37.2 82 0.1 32.2 0 0
20:30 1018 30.06 847 25.01 2.8 37.1 81 -0.1 31.8 0 0
20:35 1018 30.06 847 25.01 2.8 37.1 80 -0.2 31.6 0 0
20:40 1018 30.06 847 25.01 2.8 37 81 -0.1 31.8 0 0
20:45 1018 30.06 847 25.01 2.8 37.1 79 -0.4 31.3 0 0
20:50 1018 30.06 848 25.04 2.9 37.1 80 -0.3 31.4 0 0
20:55 1018 30.06 848 25.04 2.9 37.2 81 -0.1 31.8 0 0
21:00 1018 30.06 848 25.04 2.9 37.3 80 -0.2 31.7 0 0
21:05 1018 30.06 848 25.04 3 37.4 81 0.1 32.1 0 0
21:10 1018 30.06 848 25.04 2.9 37.2 81 -0.1 31.9 0 0
21:15 1018 30.06 848 25.04 2.8 37.1 80 -0.3 31.5 0 0
21:20 1018 30.06 848 25.04 2.7 36.9 81 -0.2 31.6 0 0
21:25 1018 30.06 847 25.01 2.7 36.8 82 -0.1 31.7 0 0
21:30 1018 30.06 847 25.01 2.5 36.4 83 -0.1 31.7 0 0
21:35 1018 30.06 848 25.04 2.3 36.1 84 -0.2 31.6 0 0
21:40 1018 30.06 848 25.04 2.2 36 84 -0.2 31.6 0 0
21:45 1018 30.06 847 25.01 2.2 36 84 -0.2 31.6 0 0
21:50 1018 30.06 847 25.01 2.3 36.1 83 -0.3 31.4 0 0
21:55 1018 30.06 847 25.01 2.4 36.3 83 -0.2 31.7 0 0
22:00 1018 30.06 848 25.04 2.3 36.2 84 -0 31.9 0 0
22:05 1018 30.06 847 25.01 2.1 35.8 87 0.2 32.3 0 0
22:10 1018 30.06 847 25.01 1.9 35.5 85 -0.3 31.5 0 0
22:15 1018 30.06 847 25.01 2.1 35.7 85 -0.2 31.7 0 0
22:20 1018 30.06 847 25.01 2.1 35.7 86 0 32.1 0 0
22:25 1018 30.06 847 25.01 2 35.6 87 0 32 0 0
22:30 1018 30.06 848 25.04 1.9 35.4 86 -0.2 31.6 0 0
22:35 1018 30.06 848 25.04 1.8 35.3 87 -0 31.9 0 0
22:40 1018 30.06 847 25.01 1.7 35.1 89 0.1 32.1 0 0
22:45 1018 30.06 848 25.04 1.6 35 89 0 32 0 0
22:50 1019 30.09 848 25.04 1.7 35.1 87 -0.2 31.7 0 0
22:55 1018 30.06 848 25.04 1.8 35.2 88 0 32.1 0 0
23:00 1019 30.09 848 25.04 1.7 35.1 89 0.1 32.2 0 0
23:05 1019 30.09 848 25.04 1.7 35 90 0.2 32.3 0 0
23:10 1019 30.09 848 25.04 1.6 35 90 0.2 32.3 0 0
23:15 1019 30.09 848 25.04 1.7 35 89 0.1 32.2 0 0
23:20 1019 30.09 848 25.04 1.7 35 89 -0 31.9 0 0
23:25 1019 30.09 848 25.04 1.7 35.1 89 0.1 32.1 0 0
23:30 1019 30.09 848 25.04 1.7 35 89 0.1 32.2 0 0
23:35 1019 30.09 848 25.04 1.7 35.1 87 -0.1 31.7 0 0
23:40 1019 30.09 848 25.04 1.8 35.2 88 -0 32 0 0
23:45 1019 30.09 848 25.04 1.8 35.2 87 -0.1 31.8 0 0
23:50 1019 30.09 848 25.04 1.8 35.2 90 0.2 32.4 0 0
23:55 1019 30.09 848 25.04 1.7 35.1 88 -0.1 31.9 0 0
24:00 1019 30.09 848 25.04 1.7 35.1 88 0 32 0 0